sensor_id;sensor_type;location;lat;lon;timestamp;pressure;altitude;pressure_sealevel;temperature;humidity
21728;BME280;11026;50.560;17.852;2024-02-26T00:02:08;98544.78;;;7.15;96.98
21728;BME280;11026;50.560;17.852;2024-02-26T00:04:35;98538.94;;;7.08;97.44
21728;BME280;11026;50.560;17.852;2024-02-26T00:07:02;98545.22;;;7.06;97.33
21728;BME280;11026;50.560;17.852;2024-02-26T00:09:29;98549.06;;;7.18;96.12
21728;BME280;11026;50.560;17.852;2024-02-26T00:11:57;98542.75;;;7.22;95.30
21728;BME280;11026;50.560;17.852;2024-02-26T00:14:24;98539.09;;;7.24;94.69
21728;BME280;11026;50.560;17.852;2024-02-26T00:16:52;98543.59;;;7.22;94.70
21728;BME280;11026;50.560;17.852;2024-02-26T00:19:20;98530.31;;;7.25;94.66
21728;BME280;11026;50.560;17.852;2024-02-26T00:21:48;98539.41;;;7.18;94.64
21728;BME280;11026;50.560;17.852;2024-02-26T00:24:15;98539.44;;;7.17;94.99
21728;BME280;11026;50.560;17.852;2024-02-26T00:26:43;98541.44;;;7.11;95.10
21728;BME280;11026;50.560;17.852;2024-02-26T00:29:11;98544.53;;;7.21;94.84
21728;BME280;11026;50.560;17.852;2024-02-26T00:31:38;98538.03;;;7.09;95.69
21728;BME280;11026;50.560;17.852;2024-02-26T00:34:07;98535.13;;;7.15;95.27
21728;BME280;11026;50.560;17.852;2024-02-26T00:36:35;98538.53;;;7.18;95.14
21728;BME280;11026;50.560;17.852;2024-02-26T00:39:03;98534.97;;;7.19;94.69
21728;BME280;11026;50.560;17.852;2024-02-26T00:41:30;98537.88;;;7.12;94.58
21728;BME280;11026;50.560;17.852;2024-02-26T00:43:57;98529.94;;;7.14;94.64
21728;BME280;11026;50.560;17.852;2024-02-26T00:46:24;98532.41;;;6.98;94.57
21728;BME280;11026;50.560;17.852;2024-02-26T00:48:51;98529.75;;;6.79;95.05
21728;BME280;11026;50.560;17.852;2024-02-26T00:51:19;98536.16;;;6.74;96.15
21728;BME280;11026;50.560;17.852;2024-02-26T00:53:50;98524.31;;;6.63;95.87
21728;BME280;11026;50.560;17.852;2024-02-26T00:56:17;98527.50;;;6.51;96.61
21728;BME280;11026;50.560;17.852;2024-02-26T00:58:45;98520.66;;;6.27;97.68
21728;BME280;11026;50.560;17.852;2024-02-26T01:01:12;98532.78;;;6.09;99.45
21728;BME280;11026;50.560;17.852;2024-02-26T01:03:40;98532.47;;;6.16;100.00
21728;BME280;11026;50.560;17.852;2024-02-26T01:06:12;98526.22;;;5.99;100.00
21728;BME280;11026;50.560;17.852;2024-02-26T01:08:43;98523.03;;;5.68;100.00
21728;BME280;11026;50.560;17.852;2024-02-26T01:11:10;98519.22;;;5.55;100.00
21728;BME280;11026;50.560;17.852;2024-02-26T01:13:37;98521.81;;;5.77;100.00
21728;BME280;11026;50.560;17.852;2024-02-26T01:16:05;98510.09;;;5.64;100.00
21728;BME280;11026;50.560;17.852;2024-02-26T01:18:32;98516.78;;;5.51;100.00
21728;BME280;11026;50.560;17.852;2024-02-26T01:21:01;98514.16;;;5.51;100.00
21728;BME280;11026;50.560;17.852;2024-02-26T01:23:29;98511.44;;;5.52;100.00
21728;BME280;11026;50.560;17.852;2024-02-26T01:25:57;98518.16;;;5.37;100.00
21728;BME280;11026;50.560;17.852;2024-02-26T01:28:25;98511.91;;;5.18;100.00
21728;BME280;11026;50.560;17.852;2024-02-26T01:30:52;98513.66;;;5.17;100.00
21728;BME280;11026;50.560;17.852;2024-02-26T01:33:19;98506.06;;;5.11;100.00
21728;BME280;11026;50.560;17.852;2024-02-26T01:35:47;98510.91;;;5.44;100.00
21728;BME280;11026;50.560;17.852;2024-02-26T01:38:15;98505.47;;;5.49;100.00
21728;BME280;11026;50.560;17.852;2024-02-26T01:40:44;98503.06;;;5.21;100.00
21728;BME280;11026;50.560;17.852;2024-02-26T01:43:11;98502.50;;;5.12;100.00
21728;BME280;11026;50.560;17.852;2024-02-26T01:45:39;98493.84;;;5.10;100.00
21728;BME280;11026;50.560;17.852;2024-02-26T01:48:06;98491.47;;;5.04;100.00
21728;BME280;11026;50.560;17.852;2024-02-26T01:50:35;98497.56;;;5.05;100.00
21728;BME280;11026;50.560;17.852;2024-02-26T01:53:07;98495.22;;;5.21;100.00
21728;BME280;11026;50.560;17.852;2024-02-26T01:55:36;98497.84;;;5.21;100.00
21728;BME280;11026;50.560;17.852;2024-02-26T01:58:05;98493.50;;;5.20;100.00
21728;BME280;11026;50.560;17.852;2024-02-26T02:00:33;98489.16;;;5.18;100.00
21728;BME280;11026;50.560;17.852;2024-02-26T02:03:01;98489.91;;;5.22;100.00
21728;BME280;11026;50.560;17.852;2024-02-26T02:05:30;98500.94;;;5.30;100.00
21728;BME280;11026;50.560;17.852;2024-02-26T02:08:00;98490.44;;;5.30;100.00
21728;BME280;11026;50.560;17.852;2024-02-26T02:10:27;98491.44;;;5.28;100.00
21728;BME280;11026;50.560;17.852;2024-02-26T02:12:55;98496.50;;;5.32;100.00
21728;BME280;11026;50.560;17.852;2024-02-26T02:15:24;98489.91;;;5.44;100.00
21728;BME280;11026;50.560;17.852;2024-02-26T02:17:52;98489.25;;;5.39;100.00
21728;BME280;11026;50.560;17.852;2024-02-26T02:20:33;98488.22;;;5.43;100.00
21728;BME280;11026;50.560;17.852;2024-02-26T02:23:03;98486.06;;;5.53;100.00
21728;BME280;11026;50.560;17.852;2024-02-26T02:25:31;98491.38;;;5.51;100.00
21728;BME280;11026;50.560;17.852;2024-02-26T02:27:58;98485.88;;;5.57;100.00
21728;BME280;11026;50.560;17.852;2024-02-26T02:30:29;98479.00;;;5.55;100.00
21728;BME280;11026;50.560;17.852;2024-02-26T02:32:57;98486.72;;;5.58;100.00
21728;BME280;11026;50.560;17.852;2024-02-26T02:35:28;98485.34;;;5.49;100.00
21728;BME280;11026;50.560;17.852;2024-02-26T02:37:57;98483.88;;;5.42;100.00
21728;BME280;11026;50.560;17.852;2024-02-26T02:40:25;98495.53;;;5.35;100.00
21728;BME280;11026;50.560;17.852;2024-02-26T02:42:51;98494.25;;;5.45;100.00
21728;BME280;11026;50.560;17.852;2024-02-26T02:45:18;98489.13;;;5.42;100.00
21728;BME280;11026;50.560;17.852;2024-02-26T02:47:45;98490.88;;;5.41;100.00
21728;BME280;11026;50.560;17.852;2024-02-26T02:50:13;98485.59;;;5.43;100.00
21728;BME280;11026;50.560;17.852;2024-02-26T02:52:40;98490.78;;;5.45;100.00
21728;BME280;11026;50.560;17.852;2024-02-26T02:55:07;98489.13;;;5.42;100.00
21728;BME280;11026;50.560;17.852;2024-02-26T02:57:35;98494.34;;;5.42;100.00
21728;BME280;11026;50.560;17.852;2024-02-26T03:00:08;98498.81;;;5.40;100.00
21728;BME280;11026;50.560;17.852;2024-02-26T03:02:36;98489.13;;;5.42;100.00
21728;BME280;11026;50.560;17.852;2024-02-26T03:05:07;98490.16;;;5.38;100.00
21728;BME280;11026;50.560;17.852;2024-02-26T03:07:35;98492.72;;;5.39;100.00
21728;BME280;11026;50.560;17.852;2024-02-26T03:10:02;98499.84;;;5.36;100.00
21728;BME280;11026;50.560;17.852;2024-02-26T03:12:31;98500.09;;;5.30;100.00
21728;BME280;11026;50.560;17.852;2024-02-26T03:15:01;98496.97;;;5.20;100.00
21728;BME280;11026;50.560;17.852;2024-02-26T03:17:29;98494.25;;;5.23;100.00
21728;BME280;11026;50.560;17.852;2024-02-26T03:19:58;98493.41;;;5.23;100.00
21728;BME280;11026;50.560;17.852;2024-02-26T03:22:28;98494.47;;;5.17;100.00
21728;BME280;11026;50.560;17.852;2024-02-26T03:24:55;98488.38;;;5.16;100.00
21728;BME280;11026;50.560;17.852;2024-02-26T03:27:24;98498.22;;;5.10;100.00
21728;BME280;11026;50.560;17.852;2024-02-26T03:29:51;98490.44;;;5.08;100.00
21728;BME280;11026;50.560;17.852;2024-02-26T03:32:21;98491.28;;;5.09;100.00
21728;BME280;11026;50.560;17.852;2024-02-26T03:34:49;98490.34;;;5.11;100.00
21728;BME280;11026;50.560;17.852;2024-02-26T03:37:19;98494.09;;;5.04;100.00
21728;BME280;11026;50.560;17.852;2024-02-26T03:39:47;98491.41;;;5.06;100.00
21728;BME280;11026;50.560;17.852;2024-02-26T03:42:14;98496.81;;;5.01;100.00
21728;BME280;11026;50.560;17.852;2024-02-26T03:44:43;98498.69;;;4.98;100.00
21728;BME280;11026;50.560;17.852;2024-02-26T03:47:12;98495.31;;;4.96;100.00
21728;BME280;11026;50.560;17.852;2024-02-26T03:49:39;98493.25;;;5.04;100.00
21728;BME280;11026;50.560;17.852;2024-02-26T03:52:06;98490.66;;;5.02;100.00
21728;BME280;11026;50.560;17.852;2024-02-26T03:54:33;98494.28;;;5.00;100.00
21728;BME280;11026;50.560;17.852;2024-02-26T03:57:03;98487.00;;;5.06;100.00
21728;BME280;11026;50.560;17.852;2024-02-26T03:59:32;98485.16;;;4.86;100.00
21728;BME280;11026;50.560;17.852;2024-02-26T04:02:04;98482.59;;;4.85;100.00
21728;BME280;11026;50.560;17.852;2024-02-26T04:04:34;98486.25;;;4.81;100.00
21728;BME280;11026;50.560;17.852;2024-02-26T04:07:01;98487.28;;;4.77;100.00
21728;BME280;11026;50.560;17.852;2024-02-26T04:09:33;98483.06;;;4.73;100.00
21728;BME280;11026;50.560;17.852;2024-02-26T04:12:00;98495.97;;;4.77;100.00
21728;BME280;11026;50.560;17.852;2024-02-26T04:14:28;98495.22;;;4.74;100.00
21728;BME280;11026;50.560;17.852;2024-02-26T04:16:56;98487.75;;;4.86;100.00
21728;BME280;11026;50.560;17.852;2024-02-26T04:19:24;98492.56;;;4.75;100.00
21728;BME280;11026;50.560;17.852;2024-02-26T04:21:51;98484.66;;;4.77;100.00
21728;BME280;11026;50.560;17.852;2024-02-26T04:24:18;98485.41;;;4.55;100.00
21728;BME280;11026;50.560;17.852;2024-02-26T04:26:49;98488.53;;;4.41;100.00
21728;BME280;11026;50.560;17.852;2024-02-26T04:29:16;98487.47;;;4.22;100.00
21728;BME280;11026;50.560;17.852;2024-02-26T04:31:43;98488.34;;;4.23;100.00
21728;BME280;11026;50.560;17.852;2024-02-26T04:34:13;98491.38;;;4.10;100.00
21728;BME280;11026;50.560;17.852;2024-02-26T04:36:41;98488.06;;;4.05;100.00
21728;BME280;11026;50.560;17.852;2024-02-26T04:39:10;98500.16;;;3.83;100.00
21728;BME280;11026;50.560;17.852;2024-02-26T04:41:38;98492.63;;;3.74;100.00
21728;BME280;11026;50.560;17.852;2024-02-26T04:44:05;98483.53;;;3.84;100.00
21728;BME280;11026;50.560;17.852;2024-02-26T04:46:33;98494.94;;;3.83;100.00
21728;BME280;11026;50.560;17.852;2024-02-26T04:48:59;98498.78;;;3.73;100.00
21728;BME280;11026;50.560;17.852;2024-02-26T04:51:27;98496.44;;;3.63;100.00
21728;BME280;11026;50.560;17.852;2024-02-26T04:53:54;98493.19;;;3.57;100.00
21728;BME280;11026;50.560;17.852;2024-02-26T04:56:22;98497.84;;;3.47;100.00
21728;BME280;11026;50.560;17.852;2024-02-26T04:58:49;98496.31;;;3.40;100.00
21728;BME280;11026;50.560;17.852;2024-02-26T05:01:19;98496.13;;;3.46;100.00
21728;BME280;11026;50.560;17.852;2024-02-26T05:03:47;98500.03;;;3.33;100.00
21728;BME280;11026;50.560;17.852;2024-02-26T05:06:14;98503.00;;;3.20;100.00
21728;BME280;11026;50.560;17.852;2024-02-26T05:08:42;98497.16;;;3.12;100.00
21728;BME280;11026;50.560;17.852;2024-02-26T05:11:11;98504.13;;;3.13;100.00
21728;BME280;11026;50.560;17.852;2024-02-26T05:13:38;98504.91;;;3.15;100.00
21728;BME280;11026;50.560;17.852;2024-02-26T05:16:08;98498.69;;;3.19;100.00
21728;BME280;11026;50.560;17.852;2024-02-26T05:18:35;98505.16;;;3.08;100.00
21728;BME280;11026;50.560;17.852;2024-02-26T05:21:03;98505.44;;;3.27;100.00
21728;BME280;11026;50.560;17.852;2024-02-26T05:23:30;98504.78;;;3.20;100.00
21728;BME280;11026;50.560;17.852;2024-02-26T05:25:57;98510.69;;;3.27;100.00
21728;BME280;11026;50.560;17.852;2024-02-26T05:28:27;98501.44;;;3.15;100.00
21728;BME280;11026;50.560;17.852;2024-02-26T05:30:56;98498.59;;;2.94;100.00
21728;BME280;11026;50.560;17.852;2024-02-26T05:33:24;98510.53;;;2.74;100.00
21728;BME280;11026;50.560;17.852;2024-02-26T05:35:52;98508.16;;;2.64;100.00
21728;BME280;11026;50.560;17.852;2024-02-26T05:38:20;98501.50;;;2.21;100.00
21728;BME280;11026;50.560;17.852;2024-02-26T05:40:49;98518.56;;;2.02;100.00
21728;BME280;11026;50.560;17.852;2024-02-26T05:43:19;98515.13;;;2.00;100.00
21728;BME280;11026;50.560;17.852;2024-02-26T05:45:46;98514.59;;;1.86;100.00
21728;BME280;11026;50.560;17.852;2024-02-26T05:48:14;98520.03;;;1.77;100.00
21728;BME280;11026;50.560;17.852;2024-02-26T05:50:42;98516.44;;;1.82;100.00
21728;BME280;11026;50.560;17.852;2024-02-26T05:53:09;98523.06;;;2.28;100.00
21728;BME280;11026;50.560;17.852;2024-02-26T05:55:37;98519.28;;;2.40;100.00
21728;BME280;11026;50.560;17.852;2024-02-26T05:58:06;98528.91;;;2.38;100.00
21728;BME280;11026;50.560;17.852;2024-02-26T06:00:37;98525.41;;;2.39;100.00
21728;BME280;11026;50.560;17.852;2024-02-26T06:03:04;98524.50;;;2.40;100.00
21728;BME280;11026;50.560;17.852;2024-02-26T06:05:31;98521.72;;;2.46;100.00
21728;BME280;11026;50.560;17.852;2024-02-26T06:08:00;98521.81;;;2.43;100.00
21728;BME280;11026;50.560;17.852;2024-02-26T06:10:28;98532.81;;;2.21;100.00
21728;BME280;11026;50.560;17.852;2024-02-26T06:12:54;98533.22;;;2.06;100.00
21728;BME280;11026;50.560;17.852;2024-02-26T06:15:21;98526.38;;;2.02;100.00
21728;BME280;11026;50.560;17.852;2024-02-26T06:17:49;98541.72;;;2.13;100.00
21728;BME280;11026;50.560;17.852;2024-02-26T06:20:17;98532.50;;;2.34;100.00
21728;BME280;11026;50.560;17.852;2024-02-26T06:22:46;98533.16;;;2.42;100.00
21728;BME280;11026;50.560;17.852;2024-02-26T06:25:13;98543.88;;;2.31;100.00
21728;BME280;11026;50.560;17.852;2024-02-26T06:27:43;98537.03;;;2.27;100.00
21728;BME280;11026;50.560;17.852;2024-02-26T06:30:11;98536.84;;;2.33;100.00
21728;BME280;11026;50.560;17.852;2024-02-26T06:32:40;98543.50;;;2.45;100.00
21728;BME280;11026;50.560;17.852;2024-02-26T06:35:09;98544.88;;;2.58;100.00
21728;BME280;11026;50.560;17.852;2024-02-26T06:37:38;98542.66;;;2.76;100.00
21728;BME280;11026;50.560;17.852;2024-02-26T06:40:06;98546.31;;;3.00;100.00
21728;BME280;11026;50.560;17.852;2024-02-26T06:42:37;98549.63;;;3.06;100.00
21728;BME280;11026;50.560;17.852;2024-02-26T06:45:05;98549.97;;;3.24;100.00
21728;BME280;11026;50.560;17.852;2024-02-26T06:47:35;98550.28;;;3.42;100.00
21728;BME280;11026;50.560;17.852;2024-02-26T06:50:04;98550.50;;;3.63;100.00
21728;BME280;11026;50.560;17.852;2024-02-26T06:52:33;98546.25;;;3.87;100.00
21728;BME280;11026;50.560;17.852;2024-02-26T06:55:04;98547.22;;;3.84;100.00
21728;BME280;11026;50.560;17.852;2024-02-26T06:57:32;98545.63;;;3.79;100.00
21728;BME280;11026;50.560;17.852;2024-02-26T07:00:01;98542.72;;;3.88;100.00
21728;BME280;11026;50.560;17.852;2024-02-26T07:02:31;98544.44;;;3.89;100.00
21728;BME280;11026;50.560;17.852;2024-02-26T07:04:59;98547.81;;;3.92;100.00
21728;BME280;11026;50.560;17.852;2024-02-26T07:07:26;98546.44;;;4.07;100.00
21728;BME280;11026;50.560;17.852;2024-02-26T07:09:54;98542.63;;;4.17;100.00
21728;BME280;11026;50.560;17.852;2024-02-26T07:12:22;98547.84;;;4.17;100.00
21728;BME280;11026;50.560;17.852;2024-02-26T07:14:49;98546.47;;;4.32;100.00
21728;BME280;11026;50.560;17.852;2024-02-26T07:17:17;98552.03;;;4.48;100.00
21728;BME280;11026;50.560;17.852;2024-02-26T07:19:47;98549.19;;;4.54;100.00
21728;BME280;11026;50.560;17.852;2024-02-26T07:22:14;98550.09;;;4.53;100.00
21728;BME280;11026;50.560;17.852;2024-02-26T07:24:42;98556.75;;;4.63;100.00
21728;BME280;11026;50.560;17.852;2024-02-26T07:27:09;98552.88;;;4.74;100.00
21728;BME280;11026;50.560;17.852;2024-02-26T07:29:36;98559.72;;;4.78;100.00
21728;BME280;11026;50.560;17.852;2024-02-26T07:32:06;98557.94;;;4.78;100.00
21728;BME280;11026;50.560;17.852;2024-02-26T07:34:32;98560.19;;;4.89;100.00
21728;BME280;11026;50.560;17.852;2024-02-26T07:37:00;98554.25;;;4.84;100.00
21728;BME280;11026;50.560;17.852;2024-02-26T07:39:27;98558.59;;;4.85;100.00
21728;BME280;11026;50.560;17.852;2024-02-26T07:41:54;98556.47;;;4.94;100.00
21728;BME280;11026;50.560;17.852;2024-02-26T07:44:22;98551.56;;;4.85;100.00
21728;BME280;11026;50.560;17.852;2024-02-26T07:46:50;98554.03;;;4.90;100.00
21728;BME280;11026;50.560;17.852;2024-02-26T07:49:17;98548.47;;;4.99;100.00
21728;BME280;11026;50.560;17.852;2024-02-26T07:51:44;98544.91;;;5.00;100.00
21728;BME280;11026;50.560;17.852;2024-02-26T07:54:11;98549.78;;;5.11;100.00
21728;BME280;11026;50.560;17.852;2024-02-26T07:56:39;98552.78;;;5.24;100.00
21728;BME280;11026;50.560;17.852;2024-02-26T07:59:08;98553.28;;;5.33;100.00
21728;BME280;11026;50.560;17.852;2024-02-26T08:01:38;98544.88;;;5.47;100.00
21728;BME280;11026;50.560;17.852;2024-02-26T08:04:06;98548.53;;;5.65;100.00
21728;BME280;11026;50.560;17.852;2024-02-26T08:06:34;98550.25;;;5.88;100.00
21728;BME280;11026;50.560;17.852;2024-02-26T08:09:04;98545.47;;;6.20;100.00
21728;BME280;11026;50.560;17.852;2024-02-26T08:11:31;98546.13;;;6.45;100.00
21728;BME280;11026;50.560;17.852;2024-02-26T08:13:59;98545.09;;;6.70;100.00
21728;BME280;11026;50.560;17.852;2024-02-26T08:16:26;98542.50;;;7.07;100.00
21728;BME280;11026;50.560;17.852;2024-02-26T08:18:53;98540.16;;;7.58;100.00
21728;BME280;11026;50.560;17.852;2024-02-26T08:21:21;98548.38;;;7.88;100.00
21728;BME280;11026;50.560;17.852;2024-02-26T08:23:49;98538.72;;;8.06;100.00
21728;BME280;11026;50.560;17.852;2024-02-26T08:26:16;98546.34;;;8.47;100.00
21728;BME280;11026;50.560;17.852;2024-02-26T08:28:43;98534.59;;;8.87;100.00
21728;BME280;11026;50.560;17.852;2024-02-26T08:31:14;98536.19;;;9.23;96.27
21728;BME280;11026;50.560;17.852;2024-02-26T08:33:44;98547.63;;;9.39;88.44
21728;BME280;11026;50.560;17.852;2024-02-26T08:36:11;98548.47;;;9.55;87.84
21728;BME280;11026;50.560;17.852;2024-02-26T08:38:38;98546.50;;;9.75;85.18
21728;BME280;11026;50.560;17.852;2024-02-26T08:41:07;98549.72;;;9.96;84.18
21728;BME280;11026;50.560;17.852;2024-02-26T08:43:41;98554.44;;;10.21;78.59
21728;BME280;11026;50.560;17.852;2024-02-26T08:46:12;98544.06;;;10.33;78.48
21728;BME280;11026;50.560;17.852;2024-02-26T08:48:40;98544.75;;;10.51;75.88
21728;BME280;11026;50.560;17.852;2024-02-26T08:51:08;98552.22;;;10.59;72.63
21728;BME280;11026;50.560;17.852;2024-02-26T08:53:36;98547.22;;;10.69;72.10
21728;BME280;11026;50.560;17.852;2024-02-26T08:56:09;98546.69;;;10.78;72.87
21728;BME280;11026;50.560;17.852;2024-02-26T08:58:45;98544.72;;;10.96;73.45
21728;BME280;11026;50.560;17.852;2024-02-26T09:01:15;98542.44;;;11.04;71.11
21728;BME280;11026;50.560;17.852;2024-02-26T09:03:42;98553.03;;;11.18;72.43
21728;BME280;11026;50.560;17.852;2024-02-26T09:06:10;98546.69;;;11.35;70.72
21728;BME280;11026;50.560;17.852;2024-02-26T09:08:39;98546.13;;;11.30;68.52
21728;BME280;11026;50.560;17.852;2024-02-26T09:11:06;98536.56;;;11.42;67.84
21728;BME280;11026;50.560;17.852;2024-02-26T09:13:34;98547.69;;;11.61;66.98
21728;BME280;11026;50.560;17.852;2024-02-26T09:16:02;98551.66;;;11.68;65.25
21728;BME280;11026;50.560;17.852;2024-02-26T09:18:29;98553.72;;;11.77;65.53
21728;BME280;11026;50.560;17.852;2024-02-26T09:20:57;98545.06;;;12.15;63.68
21728;BME280;11026;50.560;17.852;2024-02-26T09:23:24;98540.22;;;13.13;61.12
21728;BME280;11026;50.560;17.852;2024-02-26T09:25:52;98552.16;;;14.41;58.41
21728;BME280;11026;50.560;17.852;2024-02-26T09:28:19;98549.22;;;15.48;55.50
21728;BME280;11026;50.560;17.852;2024-02-26T09:30:46;98551.16;;;16.23;53.08
21728;BME280;11026;50.560;17.852;2024-02-26T09:33:15;98544.59;;;15.39;51.75
21728;BME280;11026;50.560;17.852;2024-02-26T09:35:42;98545.19;;;15.88;53.05
21728;BME280;11026;50.560;17.852;2024-02-26T09:38:09;98549.91;;;15.62;51.50
21728;BME280;11026;50.560;17.852;2024-02-26T09:40:39;98540.63;;;15.99;52.81
21728;BME280;11026;50.560;17.852;2024-02-26T09:43:07;98544.91;;;16.87;50.97
21728;BME280;11026;50.560;17.852;2024-02-26T09:45:39;98542.44;;;16.95;50.12
21728;BME280;11026;50.560;17.852;2024-02-26T09:48:08;98546.25;;;17.33;48.68
21728;BME280;11026;50.560;17.852;2024-02-26T09:50:37;98539.88;;;16.94;48.16
21728;BME280;11026;50.560;17.852;2024-02-26T09:53:04;98545.81;;;16.77;49.14
21728;BME280;11026;50.560;17.852;2024-02-26T09:55:36;98550.38;;;17.07;47.53
21728;BME280;11026;50.560;17.852;2024-02-26T09:58:05;98551.41;;;16.41;48.73
21728;BME280;11026;50.560;17.852;2024-02-26T10:00:37;98553.78;;;15.58;49.74
21728;BME280;11026;50.560;17.852;2024-02-26T10:03:09;98558.63;;;15.86;51.53
21728;BME280;11026;50.560;17.852;2024-02-26T10:05:41;98571.97;;;14.37;53.61
21728;BME280;11026;50.560;17.852;2024-02-26T10:08:25;98555.97;;;13.65;56.03
21728;BME280;11026;50.560;17.852;2024-02-26T10:10:54;98547.19;;;13.52;55.33
21728;BME280;11026;50.560;17.852;2024-02-26T10:13:21;98557.44;;;13.82;56.07
21728;BME280;11026;50.560;17.852;2024-02-26T10:15:49;98542.28;;;14.19;54.95
21728;BME280;11026;50.560;17.852;2024-02-26T10:18:16;98540.00;;;14.50;54.49
21728;BME280;11026;50.560;17.852;2024-02-26T10:21:01;98536.91;;;13.84;55.04
21728;BME280;11026;50.560;17.852;2024-02-26T10:23:29;98538.34;;;14.36;55.37
21728;BME280;11026;50.560;17.852;2024-02-26T10:25:59;98543.16;;;14.31;54.30
21728;BME280;11026;50.560;17.852;2024-02-26T10:28:29;98535.88;;;15.04;54.05
21728;BME280;11026;50.560;17.852;2024-02-26T10:30:56;98532.81;;;15.76;52.37
21728;BME280;11026;50.560;17.852;2024-02-26T10:33:24;98526.28;;;16.76;50.33
21728;BME280;11026;50.560;17.852;2024-02-26T10:35:53;98528.22;;;16.95;49.17
21728;BME280;11026;50.560;17.852;2024-02-26T10:38:23;98528.78;;;16.57;49.48
21728;BME280;11026;50.560;17.852;2024-02-26T10:40:51;98526.75;;;16.70;49.20
21728;BME280;11026;50.560;17.852;2024-02-26T10:43:17;98533.56;;;16.74;48.35
21728;BME280;11026;50.560;17.852;2024-02-26T10:45:45;98526.47;;;15.99;49.47
21728;BME280;11026;50.560;17.852;2024-02-26T10:48:13;98536.88;;;15.25;51.81
21728;BME280;11026;50.560;17.852;2024-02-26T10:50:41;98527.31;;;14.54;52.29
21728;BME280;11026;50.560;17.852;2024-02-26T10:53:20;98537.56;;;14.93;53.32
21728;BME280;11026;50.560;17.852;2024-02-26T10:56:01;98524.97;;;15.07;51.83
21728;BME280;11026;50.560;17.852;2024-02-26T10:58:31;98521.81;;;15.35;52.13
21728;BME280;11026;50.560;17.852;2024-02-26T11:01:00;98512.88;;;16.34;51.10
21728;BME280;11026;50.560;17.852;2024-02-26T11:03:30;98519.34;;;16.94;48.57
21728;BME280;11026;50.560;17.852;2024-02-26T11:06:04;98523.00;;;16.93;48.36
21728;BME280;11026;50.560;17.852;2024-02-26T11:08:33;98520.44;;;17.43;48.04
21728;BME280;11026;50.560;17.852;2024-02-26T11:11:01;98510.38;;;16.95;48.13
21728;BME280;11026;50.560;17.852;2024-02-26T11:13:30;98512.72;;;16.15;48.61
21728;BME280;11026;50.560;17.852;2024-02-26T11:16:02;98508.75;;;15.43;50.51
21728;BME280;11026;50.560;17.852;2024-02-26T11:18:30;98509.00;;;14.95;51.29
21728;BME280;11026;50.560;17.852;2024-02-26T11:20:59;98509.84;;;14.96;52.11
21728;BME280;11026;50.560;17.852;2024-02-26T11:23:26;98503.38;;;14.54;53.00
21728;BME280;11026;50.560;17.852;2024-02-26T11:25:56;98499.75;;;14.66;53.33
21728;BME280;11026;50.560;17.852;2024-02-26T11:28:27;98495.44;;;15.10;52.44
21728;BME280;11026;50.560;17.852;2024-02-26T11:30:57;98502.31;;;15.46;50.56
21728;BME280;11026;50.560;17.852;2024-02-26T11:33:28;98499.19;;;15.41;51.05
21728;BME280;11026;50.560;17.852;2024-02-26T11:35:56;98493.00;;;16.27;50.03
21728;BME280;11026;50.560;17.852;2024-02-26T11:38:24;98498.25;;;16.91;48.96
21728;BME280;11026;50.560;17.852;2024-02-26T11:40:54;98499.28;;;16.37;49.48
21728;BME280;11026;50.560;17.852;2024-02-26T11:46:30;98493.41;;;15.24;50.96
21728;BME280;11026;50.560;17.852;2024-02-26T11:48:59;98488.69;;;15.83;50.99
21728;BME280;11026;50.560;17.852;2024-02-26T11:51:32;98487.50;;;16.82;49.11
21728;BME280;11026;50.560;17.852;2024-02-26T11:54:00;98480.66;;;17.19;48.72
21728;BME280;11026;50.560;17.852;2024-02-26T11:56:27;98476.88;;;17.72;46.84
21728;BME280;11026;50.560;17.852;2024-02-26T11:59:09;98480.53;;;16.90;47.16
21728;BME280;11026;50.560;17.852;2024-02-26T12:01:47;98480.91;;;16.65;48.81
21728;BME280;11026;50.560;17.852;2024-02-26T12:04:24;98477.00;;;17.20;48.16
21728;BME280;11026;50.560;17.852;2024-02-26T12:06:55;98462.66;;;17.21;47.31
21728;BME280;11026;50.560;17.852;2024-02-26T12:09:37;98473.56;;;16.99;47.34
21728;BME280;11026;50.560;17.852;2024-02-26T12:12:10;98468.25;;;17.09;49.25
21728;BME280;11026;50.560;17.852;2024-02-26T12:14:56;98462.63;;;17.12;48.15
21728;BME280;11026;50.560;17.852;2024-02-26T12:17:25;98457.22;;;17.33;47.75
21728;BME280;11026;50.560;17.852;2024-02-26T12:19:52;98467.06;;;17.02;47.76
21728;BME280;11026;50.560;17.852;2024-02-26T12:22:21;98470.72;;;16.28;50.20
21728;BME280;11026;50.560;17.852;2024-02-26T12:24:58;98466.34;;;15.95;51.04
21728;BME280;11026;50.560;17.852;2024-02-26T12:27:27;98473.22;;;16.09;50.14
21728;BME280;11026;50.560;17.852;2024-02-26T12:29:54;98461.06;;;16.37;50.76
21728;BME280;11026;50.560;17.852;2024-02-26T12:32:23;98466.19;;;16.08;50.00
21728;BME280;11026;50.560;17.852;2024-02-26T12:34:50;98462.41;;;16.31;50.12
21728;BME280;11026;50.560;17.852;2024-02-26T12:37:17;98461.88;;;17.31;49.72
21728;BME280;11026;50.560;17.852;2024-02-26T12:39:45;98465.66;;;17.78;48.31
21728;BME280;11026;50.560;17.852;2024-02-26T12:42:14;98462.38;;;18.81;47.16
21728;BME280;11026;50.560;17.852;2024-02-26T12:44:41;98461.41;;;17.66;46.32
21728;BME280;11026;50.560;17.852;2024-02-26T12:47:09;98471.81;;;16.88;48.57
21728;BME280;11026;50.560;17.852;2024-02-26T12:49:37;98471.16;;;17.36;48.49
21728;BME280;11026;50.560;17.852;2024-02-26T12:52:05;98462.56;;;17.92;47.39
21728;BME280;11026;50.560;17.852;2024-02-26T12:54:33;98463.41;;;18.22;47.27
21728;BME280;11026;50.560;17.852;2024-02-26T12:57:03;98465.78;;;18.54;45.45
21728;BME280;11026;50.560;17.852;2024-02-26T12:59:34;98479.41;;;18.61;46.16
21728;BME280;11026;50.560;17.852;2024-02-26T13:02:02;98472.34;;;17.13;48.16